Time;durP1;ratioP1;P1;durP2;ratioP2;P2;SDS_P1;SDS_P2;PMS_P1;PMS_P2;Temp;Humidity;BMP_temperature;BMP_pressure;BME280_temperature;BME280_humidity;BME280_pressure;Samples;Min_cycle;Max_cycle;Signal;HPM_P1;HPM_P2
2023/10/09 00:01:51;;;;;;;;;;;;;;;18.29;56.74;101953.97;4957737;28;114291;-82
2023/10/09 00:04:20;;;;;;;;;;;;;;;18.30;56.82;101944.94;4934211;28;115087;-80
2023/10/09 00:06:48;;;;;;;;;;;;;;;18.33;56.54;101947.44;4926310;28;124468;-82
2023/10/09 00:12:01;;;;;;;;;;;;;;;18.37;56.65;101950.81;4933481;28;112651;-82
2023/10/09 00:14:40;;;;;;;;;;;;;;;18.37;56.69;101951.66;4956718;28;113382;-79
2023/10/09 00:19:42;;;;;;;;;;;;;;;18.36;56.73;101944.56;4927721;28;125263;-79
2023/10/09 00:22:25;;;;;;;;;;;;;;;18.36;56.73;101939.19;4936642;28;115592;-79
2023/10/09 00:25:11;;;;;;;;;;;;;;;18.35;56.70;101932.13;4937004;28;112734;-79
2023/10/09 00:27:43;;;;;;;;;;;;;;;18.35;56.79;101926.75;4946201;28;123407;-80
2023/10/09 00:30:15;;;;;;;;;;;;;;;18.34;56.84;101919.66;4948424;28;125915;-79
2023/10/09 00:32:50;;;;;;;;;;;;;;;18.34;56.74;101925.00;4949010;28;114087;-79
2023/10/09 00:35:36;;;;;;;;;;;;;;;18.34;56.74;101929.53;4933263;28;113402;-78
2023/10/09 00:38:14;;;;;;;;;;;;;;;18.34;56.85;101914.28;4948416;28;124799;-79
2023/10/09 00:40:52;;;;;;;;;;;;;;;18.35;56.90;101910.66;4951591;28;123319;-79
2023/10/09 00:43:19;;;;;;;;;;;;;;;18.36;56.77;101912.38;4949585;28;113370;-79
2023/10/09 00:45:46;;;;;;;;;;;;;;;18.36;56.83;101912.38;4940737;28;113761;-79
2023/10/09 00:48:21;;;;;;;;;;;;;;;18.37;57.07;101919.47;4948458;28;125152;-78
2023/10/09 00:50:52;;;;;;;;;;;;;;;18.40;56.85;101935.41;4939182;28;123079;-79
2023/10/09 00:53:30;;;;;;;;;;;;;;;18.40;56.91;101930.03;4952012;28;114398;-79
2023/10/09 00:56:18;;;;;;;;;;;;;;;18.43;57.15;101924.47;4951270;28;113815;-80
2023/10/09 00:58:46;;;;;;;;;;;;;;;18.45;57.04;101925.22;4951924;28;125756;-79
2023/10/09 01:01:16;;;;;;;;;;;;;;;18.47;57.05;101925.13;4935341;28;123065;-79
2023/10/09 01:03:46;;;;;;;;;;;;;;;18.48;56.98;101917.00;4953957;28;114027;-79
2023/10/09 01:11:10;;;;;;;;;;;;;;;18.53;57.02;101915.84;4953308;28;124993;-79
2023/10/09 01:16:21;;;;;;;;;;;;;;;18.55;56.96;101917.47;4951391;28;115361;-79
2023/10/09 01:18:53;;;;;;;;;;;;;;;18.56;57.03;101911.16;4951770;28;124167;-79
2023/10/09 01:21:24;;;;;;;;;;;;;;;18.57;57.03;101915.59;4936072;28;124205;-79
2023/10/09 01:24:07;;;;;;;;;;;;;;;18.59;57.11;101918.16;4952234;28;115059;-79
2023/10/09 01:26:44;;;;;;;;;;;;;;;18.60;57.09;101920.75;4928349;28;112243;-79
2023/10/09 01:29:16;;;;;;;;;;;;;;;18.61;57.07;101917.13;4950571;28;125542;-78
2023/10/09 01:31:52;;;;;;;;;;;;;;;18.61;57.05;101917.13;4944440;28;123601;-79
2023/10/09 01:34:23;;;;;;;;;;;;;;;18.63;57.13;101911.66;4952132;28;113392;-79
2023/10/09 01:36:55;;;;;;;;;;;;;;;18.64;56.98;101916.06;4935791;28;113211;-78
2023/10/09 01:39:39;;;;;;;;;;;;;;;18.64;56.98;101900.81;4935313;28;123908;-80
2023/10/09 01:42:06;;;;;;;;;;;;;;;18.64;56.92;101906.16;4939341;28;124484;-80
2023/10/09 01:44:42;;;;;;;;;;;;;;;18.65;57.09;101912.44;4954042;28;114733;-80
2023/10/09 01:47:14;;;;;;;;;;;;;;;18.64;56.99;101906.16;4953128;28;114108;-78
2023/10/09 01:49:44;;;;;;;;;;;;;;;18.66;57.11;101908.75;4951702;28;125508;-78
2023/10/09 01:52:15;;;;;;;;;;;;;;;18.66;57.03;101908.75;4952565;28;123992;-78
2023/10/09 01:54:49;;;;;;;;;;;;;;;18.68;57.02;101906.84;4951485;28;113898;-79
2023/10/09 01:57:24;;;;;;;;;;;;;;;18.68;57.09;101904.16;4944743;28;113317;-79
2023/10/09 01:59:53;;;;;;;;;;;;;;;18.68;57.18;101905.03;4935011;28;126390;-79
2023/10/09 02:02:33;;;;;;;;;;;;;;;18.71;57.09;101895.94;4951335;28;123003;-79
2023/10/09 02:05:09;;;;;;;;;;;;;;;18.72;57.03;101892.28;4951491;28;116658;-79
2023/10/09 02:07:51;;;;;;;;;;;;;;;18.73;57.09;101899.38;4962490;28;113960;-79
2023/10/09 02:10:31;;;;;;;;;;;;;;;18.75;57.08;101889.41;4948347;28;124276;-79
2023/10/09 02:12:59;;;;;;;;;;;;;;;18.76;57.12;101893.84;4950187;28;124754;-77
2023/10/09 02:21:39;;;;;;;;;;;;;;;18.80;57.14;101906.13;4937969;28;123143;-79
2023/10/09 02:23:51;;;;;;;;;;;;;;;18.82;57.10;101893.47;4913620;28;123869;-79
2023/10/09 02:28:58;;;;;;;;;;;;;;;18.81;57.25;101886.34;4950857;28;113712;-79
2023/10/09 02:31:35;;;;;;;;;;;;;;;18.82;57.16;101882.72;4941229;28;122493;-78
2023/10/09 02:34:05;;;;;;;;;;;;;;;18.83;57.24;101873.69;4939848;28;125054;-78
2023/10/09 02:36:34;;;;;;;;;;;;;;;18.85;57.18;101876.28;4950828;28;113218;-79
2023/10/09 02:39:05;;;;;;;;;;;;;;;18.88;57.27;101875.25;4952589;28;114181;-79
2023/10/09 02:41:34;;;;;;;;;;;;;;;18.89;57.17;101872.44;4960089;28;123426;-78
2023/10/09 02:44:10;;;;;;;;;;;;;;;18.90;57.18;101862.59;4934105;28;125427;-79
2023/10/09 02:46:46;;;;;;;;;;;;;;;18.91;57.16;101865.19;4948460;28;112858;-79
2023/10/09 02:49:15;;;;;;;;;;;;;;;18.94;57.19;101864.13;4955725;28;113299;-80
2023/10/09 02:51:42;;;;;;;;;;;;;;;18.95;57.27;101855.09;4951989;28;123460;-79
2023/10/09 02:54:27;;;;;;;;;;;;;;;18.97;57.30;101847.81;4959475;28;123515;-78
2023/10/09 02:57:05;;;;;;;;;;;;;;;18.98;57.21;101838.78;4934213;28;114535;-79
2023/10/09 02:59:32;;;;;;;;;;;;;;;19.00;57.24;101842.25;4950506;28;113551;-79
2023/10/09 03:01:59;;;;;;;;;;;;;;;19.00;57.27;101852.97;4950607;28;123980;-79
2023/10/09 03:04:30;;;;;;;;;;;;;;;19.02;57.17;101851.06;4931542;28;123162;-80
2023/10/09 03:06:58;;;;;;;;;;;;;;;19.03;57.21;101847.41;4934615;28;113049;-79
2023/10/09 03:09:28;;;;;;;;;;;;;;;19.03;57.29;101858.16;4950462;28;111849;-79
2023/10/09 03:12:02;;;;;;;;;;;;;;;19.06;57.14;101860.63;4950193;28;125208;-78
2023/10/09 03:14:30;;;;;;;;;;;;;;;19.06;57.26;101852.56;4935016;28;124762;-79
2023/10/09 03:16:58;;;;;;;;;;;;;;;19.07;57.26;101843.56;4952329;28;114686;-80
2023/10/09 03:19:26;;;;;;;;;;;;;;;19.09;57.17;101841.66;4950608;28;111645;-79
2023/10/09 03:21:53;;;;;;;;;;;;;;;19.09;57.21;101830.91;4937863;28;122511;-79
2023/10/09 03:24:22;;;;;;;;;;;;;;;19.10;57.18;101823.69;4932921;28;123768;-79
2023/10/09 03:26:50;;;;;;;;;;;;;;;19.10;57.13;101827.28;4945915;28;114502;-79
2023/10/09 03:29:19;;;;;;;;;;;;;;;19.09;57.33;101820.16;4916811;28;113117;-79
2023/10/09 03:31:46;;;;;;;;;;;;;;;19.09;57.26;101820.16;4934248;28;124842;-78
2023/10/09 03:34:14;;;;;;;;;;;;;;;19.09;57.25;101814.78;4942472;28;124276;-78
2023/10/09 03:36:43;;;;;;;;;;;;;;;19.09;57.20;101814.78;4934098;28;114318;-79
2023/10/09 03:41:58;;;;;;;;;;;;;;;19.08;57.31;101807.72;4945382;28;123985;-78
2023/10/09 03:44:28;;;;;;;;;;;;;;;19.10;57.43;101799.53;4947439;28;125025;-78
2023/10/09 03:46:56;;;;;;;;;;;;;;;19.11;57.30;101807.50;4949208;28;115336;-80
2023/10/09 03:49:26;;;;;;;;;;;;;;;19.10;57.33;101811.16;4953729;28;115440;-78
2023/10/09 03:51:53;;;;;;;;;;;;;;;19.11;57.49;101812.88;4948142;28;125392;-80
2023/10/09 03:54:20;;;;;;;;;;;;;;;19.12;57.33;101819.97;4940629;28;123596;-80
2023/10/09 03:56:50;;;;;;;;;;;;;;;19.13;57.43;101827.06;4948396;28;112822;-79
2023/10/09 03:59:19;;;;;;;;;;;;;;;19.14;57.34;101819.88;4947635;28;114392;-79
2023/10/09 04:01:50;;;;;;;;;;;;;;;19.16;57.42;101815.25;4946828;28;124057;-80
2023/10/09 04:04:17;;;;;;;;;;;;;;;19.16;57.46;101804.53;4962388;28;124268;-79
2023/10/09 04:06:46;;;;;;;;;;;;;;;19.15;57.43;101792.91;4948882;28;114447;-80
2023/10/09 04:11:47;;;;;;;;;;;;;;;19.18;57.41;101802.59;4947289;28;123712;-79
2023/10/09 04:14:24;;;;;;;;;;;;;;;19.18;57.47;101798.06;4946658;28;123914;-78
2023/10/09 04:16:51;;;;;;;;;;;;;;;19.19;57.52;101805.19;4918306;28;114031;-79
2023/10/09 04:19:24;;;;;;;;;;;;;;;19.21;57.35;101800.56;4950435;28;113494;-79
2023/10/09 04:21:55;;;;;;;;;;;;;;;19.22;57.42;101788.84;4932867;28;124171;-79
2023/10/09 04:24:22;;;;;;;;;;;;;;;19.23;57.37;101795.06;4945959;28;123639;-78
2023/10/09 04:26:55;;;;;;;;;;;;;;;19.23;57.50;101798.63;4959056;28;113613;-79
2023/10/09 04:29:26;;;;;;;;;;;;;;;19.23;57.49;101793.28;4951697;28;113133;-79
2023/10/09 04:31:55;;;;;;;;;;;;;;;19.24;57.41;101803.03;4947401;28;124479;-80
2023/10/09 04:34:23;;;;;;;;;;;;;;;19.28;57.49;101808.22;4919864;28;123325;-78
2023/10/09 04:36:56;;;;;;;;;;;;;;;19.30;57.30;101823.25;4945741;28;115166;-79
2023/10/09 04:41:59;;;;;;;;;;;;;;;19.34;57.47;101850.78;4931309;28;124996;-79
2023/10/09 04:44:35;;;;;;;;;;;;;;;19.34;57.47;101829.28;4929686;28;123147;-79
2023/10/09 04:50:02;;;;;;;;;;;;;;;19.34;57.47;101856.16;4934461;28;113633;-77
2023/10/09 05:03:07;;;;;;;;;;;;;;;19.33;57.42;101849.06;4959020;28;123094;-80
2023/10/09 05:13:42;;;;;;;;;;;;;;;19.35;57.46;101839.09;4952708;28;123462;-79
2023/10/09 05:16:25;;;;;;;;;;;;;;;19.35;57.51;101831.03;4934666;28;123207;-78
2023/10/09 05:18:56;;;;;;;;;;;;;;;19.35;57.42;101831.03;4948750;28;114168;-78
2023/10/09 05:31:56;;;;;;;;;;;;;;;19.35;57.58;101852.50;4938916;28;114744;-80
2023/10/09 05:34:33;;;;;;;;;;;;;;;19.34;57.46;101857.00;4952840;28;123313;-78
2023/10/09 05:37:16;;;;;;;;;;;;;;;19.35;57.48;101857.88;4950536;28;124008;-79
2023/10/09 05:39:58;;;;;;;;;;;;;;;19.36;57.58;101870.34;4950069;28;114917;-79
2023/10/09 05:42:42;;;;;;;;;;;;;;;19.37;57.47;101882.81;4952240;28;113869;-79
2023/10/09 05:48:48;;;;;;;;;;;;;;;19.38;57.42;101871.09;4948211;28;124182;-79
2023/10/09 05:51:10;;;;;;;;;;;;;;;19.36;57.52;101864.97;4933326;28;113910;-78
2023/10/09 06:04:54;;;;;;;;;;;;;;;19.32;57.55;101890.31;4938379;28;112139;-79
2023/10/09 06:07:24;;;;;;;;;;;;;;;19.33;57.73;101897.41;4932254;28;123473;-78
2023/10/09 06:09:55;;;;;;;;;;;;;;;19.34;57.60;101896.44;4950826;28;124134;-79
2023/10/09 06:12:34;;;;;;;;;;;;;;;19.35;57.55;101895.50;4936086;28;115150;-80
2023/10/09 06:17:51;;;;;;;;;;;;;;;19.33;57.69;101886.69;4942960;28;124430;-79
2023/10/09 06:23:15;;;;;;;;;;;;;;;19.34;57.75;101889.22;4951969;28;114543;-79
2023/10/09 06:25:50;;;;;;;;;;;;;;;19.37;57.66;101890.88;4951611;28;114597;-80
2023/10/09 06:28:33;;;;;;;;;;;;;;;19.38;57.73;101895.28;4956456;28;123855;-78
2023/10/09 06:31:29;;;;;;;;;;;;;;;19.39;57.76;101878.22;4945267;28;124924;-80
2023/10/09 06:34:15;;;;;;;;;;;;;;;19.41;57.66;101879.81;4940464;28;114604;-78
2023/10/09 06:36:52;;;;;;;;;;;;;;;19.41;57.70;101911.22;4938381;28;111884;-78
2023/10/09 06:42:09;;;;;;;;;;;;;;;19.43;57.77;101911.97;4942945;28;123913;-78
2023/10/09 06:44:53;;;;;;;;;;;;;;;19.44;57.85;101900.28;4931808;28;113866;-80
2023/10/09 06:47:23;;;;;;;;;;;;;;;19.45;57.79;101881.34;4931980;28;113629;-79
2023/10/09 06:55:48;;;;;;;;;;;;;;;19.49;57.75;101865.88;4902032;28;114706;-79
2023/10/09 06:58:28;;;;;;;;;;;;;;;19.52;57.71;101873.75;4900828;28;113158;-79
2023/10/09 07:03:35;;;;;;;;;;;;;;;19.52;57.66;101897.94;4946229;28;123963;-79
2023/10/09 07:06:05;;;;;;;;;;;;;;;19.52;57.74;101892.56;4946568;28;113643;-79
2023/10/09 07:08:32;;;;;;;;;;;;;;;19.53;57.75;101886.19;4943673;28;113997;-78
2023/10/09 07:11:21;;;;;;;;;;;;;;;19.55;57.84;101881.63;4965149;28;125333;-78
2023/10/09 07:13:55;;;;;;;;;;;;;;;19.57;57.79;101879.69;4952311;28;124978;-78
2023/10/09 07:16:37;;;;;;;;;;;;;;;19.57;57.83;101871.63;4952879;28;114878;-80
2023/10/09 07:19:35;;;;;;;;;;;;;;;19.60;57.79;101847.22;4944477;28;115207;-78
2023/10/09 07:22:02;;;;;;;;;;;;;;;19.61;57.86;101843.56;4934032;28;124273;-79
2023/10/09 07:24:43;;;;;;;;;;;;;;;19.64;57.84;101862.16;4919938;28;123600;-78
2023/10/09 07:27:14;;;;;;;;;;;;;;;19.67;57.90;101889.81;4916405;28;114345;-78
2023/10/09 07:29:50;;;;;;;;;;;;;;;19.71;57.95;101891.34;4951742;28;113335;-78
2023/10/09 07:32:20;;;;;;;;;;;;;;;19.73;57.87;101894.81;4940633;28;124307;-80
2023/10/09 07:34:53;;;;;;;;;;;;;;;19.76;57.89;101905.34;4950277;28;124434;-79
2023/10/09 07:37:24;;;;;;;;;;;;;;;19.80;57.79;101913.09;4951443;28;114714;-79
2023/10/09 07:39:57;;;;;;;;;;;;;;;19.82;57.91;101926.47;4962971;28;113534;-78
2023/10/09 07:42:43;;;;;;;;;;;;;;;19.86;57.87;101917.22;4963074;28;124891;-78
2023/10/09 07:50:48;;;;;;;;;;;;;;;19.92;57.86;101927.53;4938285;28;114815;-78
2023/10/09 07:53:18;;;;;;;;;;;;;;;19.96;57.86;101929.06;4949057;28;123579;-78
2023/10/09 07:55:54;;;;;;;;;;;;;;;19.97;57.83;101922.72;4948107;28;124427;-79
2023/10/09 07:58:25;;;;;;;;;;;;;;;19.99;57.79;101923.50;4948866;28;115783;-80
2023/10/09 08:01:08;;;;;;;;;;;;;;;20.01;57.91;101921.56;4959799;28;113796;-78
2023/10/09 08:03:36;;;;;;;;;;;;;;;20.03;57.84;101914.25;4947425;28;124081;-78
2023/10/09 08:14:21;;;;;;;;;;;;;;;20.08;57.82;101888.84;4949852;28;124649;-79
2023/10/09 08:16:49;;;;;;;;;;;;;;;20.09;57.76;101877.13;4950403;28;124207;-79
2023/10/09 08:19:34;;;;;;;;;;;;;;;20.11;57.82;101862.59;4950076;28;114047;-79
2023/10/09 08:24:56;;;;;;;;;;;;;;;20.14;57.94;101834.66;4950226;28;123435;-79
2023/10/09 08:33:00;;;;;;;;;;;;;;;20.32;57.96;101837.88;4950690;28;114248;-79
2023/10/09 08:35:32;;;;;;;;;;;;;;;20.37;57.89;101852.72;4943690;28;124210;-78
2023/10/09 08:38:10;;;;;;;;;;;;;;;20.41;57.87;101859.59;4931021;28;124646;-79
2023/10/09 08:40:42;;;;;;;;;;;;;;;20.47;57.96;101873.59;4929125;28;115005;-79
2023/10/09 08:43:09;;;;;;;;;;;;;;;20.54;57.94;101888.34;4930029;28;112886;-78
2023/10/09 08:45:44;;;;;;;;;;;;;;;20.59;58.07;101888.91;4929139;28;123937;-78
2023/10/09 08:48:17;;;;;;;;;;;;;;;20.66;57.93;101906.34;4947725;28;124330;-78
2023/10/09 08:50:45;;;;;;;;;;;;;;;20.71;57.96;101914.97;4934113;28;114261;-79
2023/10/09 08:53:12;;;;;;;;;;;;;;;20.77;57.95;101913.66;4943338;28;114470;-79
2023/10/09 08:55:40;;;;;;;;;;;;;;;20.84;57.96;101914.97;4925483;28;125171;-77
2023/10/09 08:58:19;;;;;;;;;;;;;;;20.89;57.98;101906.53;4943656;28;124064;-77
2023/10/09 09:00:46;;;;;;;;;;;;;;;20.95;57.85;101906.13;4952827;28;115507;-79
2023/10/09 09:03:22;;;;;;;;;;;;;;;21.02;58.03;101912.78;4936570;28;114755;-79
2023/10/09 09:06:02;;;;;;;;;;;;;;;21.10;57.96;101915.78;4937366;28;122098;-80
2023/10/09 09:08:30;;;;;;;;;;;;;;;21.17;57.94;101922.44;4945369;28;122760;-80
2023/10/09 09:11:14;;;;;;;;;;;;;;;21.24;57.89;101922.00;4938293;28;115003;-78
2023/10/09 09:13:48;;;;;;;;;;;;;;;21.29;57.80;101925.22;4934402;28;112736;-79
2023/10/09 09:16:22;;;;;;;;;;;;;;;21.34;57.82;101931.09;4940604;28;123438;-78
2023/10/09 09:19:00;;;;;;;;;;;;;;;21.41;57.88;101929.69;4953499;28;124365;-78
2023/10/09 09:21:28;;;;;;;;;;;;;;;21.48;57.79;101936.38;4953332;28;114556;-78
2023/10/09 09:23:57;;;;;;;;;;;;;;;21.53;57.78;101934.22;4951590;28;113324;-78
2023/10/09 09:26:37;;;;;;;;;;;;;;;21.58;57.68;101926.63;4966322;28;124841;-78
2023/10/09 09:29:05;;;;;;;;;;;;;;;21.62;57.69;101921.03;4950610;28;125060;-78
2023/10/09 09:31:42;;;;;;;;;;;;;;;21.67;57.60;101929.63;4947901;28;113837;-78
2023/10/09 09:34:17;;;;;;;;;;;;;;;21.70;57.62;101929.38;4953323;28;113945;-80
2023/10/09 09:36:53;;;;;;;;;;;;;;;21.72;57.53;101932.84;4953969;28;125235;-78
2023/10/09 09:39:29;;;;;;;;;;;;;;;21.75;57.58;101933.44;4941431;28;125109;-78
2023/10/09 09:42:13;;;;;;;;;;;;;;;21.84;57.79;101937.31;4928217;28;114937;-78
2023/10/09 09:44:45;;;;;;;;;;;;;;;21.90;57.68;101942.22;4967985;28;113964;-79
2023/10/09 09:47:13;;;;;;;;;;;;;;;21.96;57.58;101947.19;4956318;28;125026;-79
2023/10/09 09:49:41;;;;;;;;;;;;;;;22.01;57.59;101948.66;4939374;28;123806;-79
2023/10/09 09:52:11;;;;;;;;;;;;;;;22.05;57.59;101944.75;4939374;28;115401;-79
2023/10/09 09:54:39;;;;;;;;;;;;;;;22.12;57.63;101946.00;4955690;28;113560;-79
2023/10/09 09:57:13;;;;;;;;;;;;;;;22.18;57.68;101950.94;4954711;28;124381;-78
2023/10/09 09:59:41;;;;;;;;;;;;;;;22.24;57.57;101953.16;4937093;28;123549;-79
2023/10/09 10:02:20;;;;;;;;;;;;;;;22.31;57.53;101957.13;4952047;28;115337;-79
2023/10/09 10:04:50;;;;;;;;;;;;;;;22.37;57.63;101955.78;4942826;28;114910;-79
2023/10/09 10:07:21;;;;;;;;;;;;;;;22.43;57.56;101960.72;4952529;28;123799;-79
2023/10/09 10:09:54;;;;;;;;;;;;;;;22.49;57.47;101960.25;4954761;28;123500;-78
2023/10/09 10:12:41;;;;;;;;;;;;;;;22.53;57.49;101960.88;4933200;28;115063;-78
2023/10/09 10:15:08;;;;;;;;;;;;;;;22.59;57.34;101964.94;4942693;28;112272;-78
2023/10/09 10:17:56;;;;;;;;;;;;;;;22.63;57.47;101967.25;4954529;28;124913;-78
2023/10/09 10:22:50;;;;;;;;;;;;;;;22.77;57.54;101949.09;4940399;28;114660;-78
2023/10/09 10:25:35;;;;;;;;;;;;;;;22.83;57.36;101943.22;4937327;28;113020;-78
2023/10/09 10:28:15;;;;;;;;;;;;;;;22.89;57.32;101942.75;4932364;28;124574;-78
2023/10/09 10:30:46;;;;;;;;;;;;;;;22.92;57.27;101945.19;4929479;28;124044;-78
2023/10/09 10:33:15;;;;;;;;;;;;;;;22.96;57.20;101943.94;4929659;28;116292;-79
2023/10/09 10:38:23;;;;;;;;;;;;;;;23.07;57.38;101943.97;4946977;28;123426;-78
2023/10/09 10:41:00;;;;;;;;;;;;;;;23.15;57.26;101950.59;4937640;28;125303;-77
2023/10/09 10:46:15;;;;;;;;;;;;;;;23.26;57.16;101954.19;4937516;28;114773;-78
2023/10/09 10:48:47;;;;;;;;;;;;;;;23.31;57.25;101945.69;4943402;28;124502;-78
2023/10/09 10:51:21;;;;;;;;;;;;;;;23.36;57.17;101943.47;4941428;28;123189;-78
2023/10/09 10:53:57;;;;;;;;;;;;;;;23.41;57.27;101945.78;4936703;28;114792;-78
2023/10/09 10:56:35;;;;;;;;;;;;;;;23.46;57.21;101939.00;4939560;28;114181;-78
2023/10/09 11:07:16;;;;;;;;;;;;;;;23.64;57.30;101943.88;4918880;28;114675;-78
2023/10/09 11:12:45;;;;;;;;;;;;;;;23.81;57.01;101948.78;4934021;28;124219;-77
2023/10/09 11:18:07;;;;;;;;;;;;;;;23.89;57.17;101937.31;4964153;28;113112;-78
2023/10/09 11:20:36;;;;;;;;;;;;;;;23.94;57.05;101939.63;4947989;28;124425;-78
2023/10/09 11:25:50;;;;;;;;;;;;;;;24.08;56.88;101933.91;4950260;28;115576;-78
2023/10/09 11:28:29;;;;;;;;;;;;;;;24.15;57.12;101931.53;4951275;28;114236;-78
2023/10/09 11:31:06;;;;;;;;;;;;;;;24.24;56.98;101934.31;4958527;28;123503;-78
2023/10/09 11:33:42;;;;;;;;;;;;;;;24.32;56.86;101938.19;4944697;28;126142;-79
2023/10/09 11:36:09;;;;;;;;;;;;;;;24.39;56.87;101936.69;4930652;28;115825;-78
2023/10/09 11:38:37;;;;;;;;;;;;;;;24.45;56.89;101941.59;4934320;28;115479;-77
2023/10/09 11:41:19;;;;;;;;;;;;;;;24.48;56.68;101936.72;4937961;28;123632;-78
2023/10/09 11:43:53;;;;;;;;;;;;;;;24.53;56.84;101939.09;4930203;28;123218;-78
2023/10/09 11:47:14;;;;;;;;;;;;;;;24.56;56.61;101933.38;4929858;28;115314;-78
2023/10/09 11:54:35;;;;;;;;;;;;;;;24.57;56.62;101935.13;4906024;28;124906;-78
2023/10/09 11:57:03;;;;;;;;;;;;;;;24.57;56.41;101923.44;4932825;28;115039;-78
2023/10/09 11:59:40;;;;;;;;;;;;;;;24.56;56.39;101927.97;4933330;28;114646;-78
2023/10/09 12:02:12;;;;;;;;;;;;;;;24.56;56.42;101933.38;4928800;28;123534;-77
2023/10/09 12:04:43;;;;;;;;;;;;;;;24.58;56.53;101942.25;4931992;28;123289;-78
2023/10/09 12:07:13;;;;;;;;;;;;;;;24.59;56.46;101943.97;4931884;28;112736;-77
2023/10/09 12:09:40;;;;;;;;;;;;;;;24.63;56.65;101950.81;4930855;28;112737;-78
2023/10/09 12:12:10;;;;;;;;;;;;;;;24.65;56.63;101943.41;4931582;28;124188;-77
2023/10/09 12:14:40;;;;;;;;;;;;;;;24.68;56.36;101937.75;4940159;28;125149;-78
2023/10/09 12:17:08;;;;;;;;;;;;;;;24.71;56.42;101941.16;4950280;28;115682;-77
2023/10/09 12:19:36;;;;;;;;;;;;;;;24.76;56.47;101933.50;4932484;28;113752;-77
2023/10/09 12:22:04;;;;;;;;;;;;;;;24.78;56.47;101926.94;4938208;28;124101;-78
2023/10/09 12:24:33;;;;;;;;;;;;;;;24.83;56.38;101923.84;4930127;28;124958;-78
2023/10/09 12:27:00;;;;;;;;;;;;;;;24.83;56.14;101923.84;4930195;28;114958;-77
2023/10/09 12:29:30;;;;;;;;;;;;;;;24.82;56.45;101916.69;4927665;28;112757;-78
2023/10/09 12:32:01;;;;;;;;;;;;;;;24.81;56.40;101915.84;4933631;28;124321;-78
2023/10/09 12:34:28;;;;;;;;;;;;;;;24.81;56.06;101921.25;4956363;28;123724;-77
2023/10/09 12:36:56;;;;;;;;;;;;;;;24.80;56.09;101910.56;4949611;28;114572;-78
2023/10/09 12:39:23;;;;;;;;;;;;;;;24.80;56.10;101919.53;4948490;28;114414;-78
2023/10/09 12:41:53;;;;;;;;;;;;;;;24.80;56.15;101913.25;4944362;28;123651;-78
2023/10/09 12:44:20;;;;;;;;;;;;;;;24.80;56.16;101910.56;4937044;28;123664;-78
2023/10/09 12:46:53;;;;;;;;;;;;;;;24.81;56.01;101904.16;4938265;28;114448;-78
2023/10/09 12:49:26;;;;;;;;;;;;;;;24.82;56.21;101905.84;4945071;28;113645;-78
2023/10/09 12:51:54;;;;;;;;;;;;;;;24.83;56.14;101907.59;4946968;28;124158;-78
2023/10/09 12:54:26;;;;;;;;;;;;;;;24.85;56.26;101900.16;4944918;28;124653;-77
2023/10/09 12:56:59;;;;;;;;;;;;;;;24.91;56.59;101882.50;4948648;28;114354;-78
2023/10/09 12:59:26;;;;;;;;;;;;;;;24.97;56.40;101888.22;4944593;28;114910;-78
2023/10/09 13:01:57;;;;;;;;;;;;;;;25.05;56.44;101884.81;4932501;28;124354;-78
2023/10/09 13:04:31;;;;;;;;;;;;;;;25.13;56.13;101890.41;4938361;28;124148;-78
2023/10/09 13:07:03;;;;;;;;;;;;;;;25.17;56.20;101894.56;4963308;28;115051;-77
2023/10/09 13:09:35;;;;;;;;;;;;;;;25.19;56.21;101891.72;4952636;28;113111;-78
2023/10/09 13:12:02;;;;;;;;;;;;;;;25.20;56.01;101888.00;4933929;28;123181;-77
2023/10/09 13:14:33;;;;;;;;;;;;;;;25.23;56.21;101898.59;4939607;28;122681;-78
2023/10/09 13:17:08;;;;;;;;;;;;;;;25.27;56.26;101894.59;4957739;28;114617;-77
2023/10/09 13:19:35;;;;;;;;;;;;;;;25.29;56.06;101898.03;4945743;28;115072;-78
2023/10/09 13:22:03;;;;;;;;;;;;;;;25.31;55.92;101890.63;4958630;28;123600;-78
2023/10/09 13:24:30;;;;;;;;;;;;;;;25.35;55.92;101897.47;4932853;28;123102;-78
2023/10/09 13:27:04;;;;;;;;;;;;;;;25.38;56.23;101901.78;4933106;28;113541;-77
2023/10/09 13:29:33;;;;;;;;;;;;;;;25.39;55.94;101898.94;4934301;28;113710;-78
2023/10/09 13:32:02;;;;;;;;;;;;;;;25.43;56.00;101908.50;4937300;28;123495;-78
2023/10/09 13:34:30;;;;;;;;;;;;;;;25.49;55.97;101914.34;4951315;28;123056;-78
2023/10/09 13:36:59;;;;;;;;;;;;;;;25.56;56.17;101929.06;4961484;28;114353;-78
2023/10/09 13:39:26;;;;;;;;;;;;;;;25.60;56.06;101923.22;4942607;28;112196;-78
2023/10/09 13:41:57;;;;;;;;;;;;;;;25.65;55.71;101920.06;4954703;28;124587;-78
2023/10/09 13:44:31;;;;;;;;;;;;;;;25.64;55.97;101912.94;4959681;28;123482;-77
2023/10/09 13:46:59;;;;;;;;;;;;;;;25.64;55.84;101923.78;4937427;28;115200;-78
2023/10/09 13:49:30;;;;;;;;;;;;;;;25.65;55.89;101909.22;4951611;28;113836;-77
2023/10/09 13:52:02;;;;;;;;;;;;;;;25.67;55.69;101912.63;4966206;28;124199;-78
2023/10/09 13:57:00;;;;;;;;;;;;;;;25.72;55.54;101910.38;4957439;28;115042;-78
2023/10/09 13:59:27;;;;;;;;;;;;;;;25.73;55.82;101914.81;4953119;28;113926;-78
2023/10/09 14:01:54;;;;;;;;;;;;;;;25.74;55.80;101913.78;4955503;28;123435;-78
2023/10/09 14:04:22;;;;;;;;;;;;;;;25.73;55.85;101920.22;4937212;28;123223;-78
2023/10/09 14:07:01;;;;;;;;;;;;;;;25.69;55.45;101916.06;4955944;28;115379;-78
2023/10/09 14:09:30;;;;;;;;;;;;;;;25.68;55.72;101919.78;4966672;28;114446;-78
2023/10/09 14:12:05;;;;;;;;;;;;;;;25.68;55.63;101913.53;4954870;28;123681;-78
2023/10/09 14:14:38;;;;;;;;;;;;;;;25.64;55.34;101902.09;4955448;28;125156;-78
2023/10/09 14:17:11;;;;;;;;;;;;;;;25.61;55.64;101902.38;4954370;28;114146;-78
2023/10/09 14:19:40;;;;;;;;;;;;;;;25.62;55.44;101904.09;4934067;28;112178;-78
2023/10/09 14:22:07;;;;;;;;;;;;;;;25.60;55.65;101896.09;4936812;28;122584;-78
2023/10/09 14:24:34;;;;;;;;;;;;;;;25.59;55.48;101893.50;4939450;28;125485;-78
2023/10/09 14:27:04;;;;;;;;;;;;;;;25.56;55.30;101896.50;4938853;28;113321;-78
2023/10/09 14:29:31;;;;;;;;;;;;;;;25.55;55.66;101890.22;4936922;28;115396;-78
2023/10/09 14:32:00;;;;;;;;;;;;;;;25.55;55.48;101897.50;4937881;28;124543;-78
2023/10/09 14:34:32;;;;;;;;;;;;;;;25.52;55.63;101897.78;4959168;28;125566;-78
2023/10/09 14:37:00;;;;;;;;;;;;;;;25.51;55.28;101912.38;4946183;28;114661;-78
2023/10/09 14:39:28;;;;;;;;;;;;;;;25.48;55.58;101896.34;4933770;28;114332;-78
2023/10/09 14:41:57;;;;;;;;;;;;;;;25.45;55.30;101892.09;4930472;28;123735;-78
2023/10/09 14:44:27;;;;;;;;;;;;;;;25.42;55.46;101901.34;4932811;28;124064;-78
2023/10/09 14:46:55;;;;;;;;;;;;;;;25.40;55.53;101889.78;4954511;28;113969;-78
2023/10/09 14:49:23;;;;;;;;;;;;;;;25.38;55.35;101897.19;4947100;28;113667;-78
2023/10/09 14:51:50;;;;;;;;;;;;;;;25.38;55.34;101897.19;4933135;28;124005;-78
2023/10/09 14:54:17;;;;;;;;;;;;;;;25.36;55.20;101893.78;4945306;28;124258;-78
2023/10/09 14:56:45;;;;;;;;;;;;;;;25.32;55.18;101903.19;4934004;28;115390;-77
2023/10/09 14:59:12;;;;;;;;;;;;;;;25.31;55.29;101895.19;4937855;28;115914;-78
2023/10/09 15:01:39;;;;;;;;;;;;;;;25.28;55.17;101890.91;4940024;28;124126;-78
2023/10/09 15:04:10;;;;;;;;;;;;;;;25.29;55.38;101897.19;4937368;28;122990;-78
2023/10/09 15:06:38;;;;;;;;;;;;;;;25.29;55.36;101892.59;4934053;28;114317;-79
2023/10/09 15:09:09;;;;;;;;;;;;;;;25.28;55.22;101890.91;4946294;28;115102;-78
2023/10/09 15:11:40;;;;;;;;;;;;;;;25.28;55.33;101890.91;4941759;28;124984;-78
2023/10/09 15:14:08;;;;;;;;;;;;;;;25.25;55.13;101891.19;4922542;28;96985;-78
2023/10/09 15:16:38;;;;;;;;;;;;;;;25.22;55.09;101891.41;4947729;28;113918;-78
2023/10/09 15:19:06;;;;;;;;;;;;;;;25.16;55.18;101889.28;4944267;28;114181;-78
2023/10/09 15:21:34;;;;;;;;;;;;;;;25.12;55.30;101895.97;4930158;28;124067;-78